Time;durP1;ratioP1;P1;durP2;ratioP2;P2;SDS_P1;SDS_P2;PMS_P1;PMS_P2;Temp;Humidity;BMP_temperature;BMP_pressure;BME280_temperature;BME280_humidity;BME280_pressure;Samples;Min_cycle;Max_cycle;Signal;HPM_P1;HPM_P2
2023/10/16 00:02:22;;;;;;;1.17;1.10;;;;;;;11.90;57.80;94775.75;5111281;28;20310;-73
2023/10/16 00:04:48;;;;;;;1.05;0.90;;;;;;;11.89;56.95;94782.03;5107963;28;20248;-73
2023/10/16 00:07:16;;;;;;;1.00;1.00;;;;;;;11.73;57.37;94787.22;5110318;28;20188;-72
2023/10/16 00:09:41;;;;;;;1.10;1.05;;;;;;;11.91;56.95;94772.13;5101916;28;20246;-73
2023/10/16 00:12:08;;;;;;;0.82;0.82;;;;;;;11.87;56.37;94772.63;5109006;28;20295;-73
2023/10/16 00:14:35;;;;;;;0.98;0.98;;;;;;;11.88;56.12;94803.25;5110848;28;20298;-73
2023/10/16 00:17:07;;;;;;;0.98;0.93;;;;;;;11.67;56.60;94793.16;5111994;27;20223;-73
2023/10/16 00:19:37;;;;;;;1.00;1.00;;;;;;;11.86;56.07;94770.97;5110929;28;20274;-73
2023/10/16 00:22:27;;;;;;;1.13;1.00;;;;;;;11.66;56.19;94781.81;5109307;28;20258;-72
2023/10/16 00:24:51;;;;;;;1.95;1.02;;;;;;;11.61;56.36;94797.28;5106230;28;20254;-72
2023/10/16 00:27:17;;;;;;;1.20;1.10;;;;;;;11.49;56.46;94795.94;5110369;28;20215;-73
2023/10/16 00:29:45;;;;;;;0.85;0.85;;;;;;;11.65;56.10;94805.66;5103789;28;20215;-73
2023/10/16 00:32:12;;;;;;;1.15;1.05;;;;;;;11.51;56.21;94812.41;5111195;28;20219;-74
2023/10/16 00:34:38;;;;;;;0.90;0.90;;;;;;;11.63;55.70;94823.47;5110457;28;20176;-74
2023/10/16 00:37:06;;;;;;;3.33;1.00;;;;;;;11.82;55.14;94833.69;5111585;28;20246;-73
2023/10/16 00:39:32;;;;;;;2.92;1.20;;;;;;;11.81;54.90;94839.09;5104813;28;20223;-73
2023/10/16 00:41:59;;;;;;;1.20;1.10;;;;;;;11.79;55.18;94838.47;5111875;28;20219;-74
2023/10/16 00:44:34;;;;;;;1.00;1.00;;;;;;;11.83;55.17;94858.22;5111707;28;20203;-74
2023/10/16 00:47:09;;;;;;;1.20;1.10;;;;;;;11.56;55.88;94865.41;5110945;28;20265;-73
2023/10/16 00:49:35;;;;;;;1.08;1.08;;;;;;;11.83;54.95;94871.38;5110048;28;20253;-72
2023/10/16 00:52:04;;;;;;;1.15;0.95;;;;;;;11.76;55.09;94850.16;5109518;28;20216;-73
2023/10/16 00:54:33;;;;;;;1.40;1.30;;;;;;;11.69;55.04;94835.97;5111617;28;20215;-74
2023/10/16 00:57:00;;;;;;;1.50;1.40;;;;;;;11.37;55.68;94840.19;5111696;28;20219;-73
2023/10/16 00:59:26;;;;;;;1.98;1.30;;;;;;;11.54;55.48;94845.47;5111712;28;20230;-73
2023/10/16 01:04:37;;;;;;;1.70;1.60;;;;;;;11.64;54.97;94868.06;5113204;28;20300;-73
2023/10/16 01:07:05;;;;;;;2.42;1.90;;;;;;;11.43;55.61;94852.69;5107670;28;20203;-73
2023/10/16 01:09:34;;;;;;;2.33;2.10;;;;;;;11.44;55.37;94864.03;5107010;28;20216;-72
2023/10/16 01:12:00;;;;;;;2.67;2.47;;;;;;;11.36;55.87;94882.44;5111081;28;20215;-74
2023/10/16 01:14:26;;;;;;;2.72;2.50;;;;;;;11.18;56.19;94872.88;5111363;28;20229;-74
2023/10/16 01:16:54;;;;;;;3.28;2.67;;;;;;;11.25;56.58;94887.06;5111745;28;20296;-73
2023/10/16 01:19:20;;;;;;;2.92;2.70;;;;;;;11.35;56.24;94865.84;5111207;28;20191;-73
2023/10/16 01:21:49;;;;;;;3.13;2.70;;;;;;;11.01;57.01;94857.97;5127368;28;20211;-73
2023/10/16 01:24:16;;;;;;;3.40;3.10;;;;;;;11.23;56.37;94856.59;5113123;28;20218;-73
2023/10/16 01:26:42;;;;;;;3.55;3.25;;;;;;;11.32;56.14;94857.44;5114431;28;20314;-74
2023/10/16 01:29:09;;;;;;;3.30;3.03;;;;;;;11.32;56.11;94858.25;5103338;28;20218;-74
2023/10/16 01:31:38;;;;;;;4.25;3.70;;;;;;;11.30;56.29;94860.22;5114525;27;20217;-74
2023/10/16 01:34:10;;;;;;;3.80;3.50;;;;;;;11.27;56.13;94847.38;5135633;27;20261;-74
2023/10/16 01:36:45;;;;;;;3.70;3.40;;;;;;;11.27;56.17;94835.03;5133011;27;20638;-74
2023/10/16 01:39:47;;;;;;;4.20;3.90;;;;;;;11.23;56.31;94859.25;5118028;27;20214;-74
2023/10/16 01:42:01;;;;;;;4.43;4.13;;;;;;;11.02;56.87;94859.66;5136450;27;20210;-74
2023/10/16 01:44:28;;;;;;;4.32;4.03;;;;;;;10.97;57.15;94856.66;5136665;27;20202;-74
2023/10/16 01:46:54;;;;;;;5.03;4.63;;;;;;;10.93;57.13;94858.78;5118023;27;20198;-74
2023/10/16 01:49:19;;;;;;;4.93;4.50;;;;;;;10.79;57.70;94864.63;5117343;27;20211;-74
2023/10/16 01:51:45;;;;;;;5.28;4.70;;;;;;;10.84;57.69;94883.41;5135516;27;20214;-73
2023/10/16 01:54:13;;;;;;;5.07;4.68;;;;;;;10.81;58.14;94902.13;5135897;27;20215;-73
2023/10/16 01:56:38;;;;;;;5.82;5.32;;;;;;;10.69;58.52;94900.72;5118382;27;20239;-74
2023/10/16 01:59:06;;;;;;;10.13;5.70;;;;;;;10.82;58.38;94906.41;5117923;27;20297;-76
2023/10/16 02:01:31;;;;;;;6.63;6.03;;;;;;;10.87;58.28;94909.38;5130026;27;20178;-75
2023/10/16 02:03:57;;;;;;;6.65;6.10;;;;;;;10.88;58.36;94911.06;5117908;27;20214;-76
2023/10/16 02:06:25;;;;;;;6.32;5.72;;;;;;;10.65;58.62;94939.66;5129835;27;20210;-76
2023/10/16 02:08:51;;;;;;;6.05;5.55;;;;;;;10.68;58.02;94959.56;5135420;27;20222;-76
2023/10/16 02:11:16;;;;;;;6.70;6.10;;;;;;;10.48;58.38;94945.81;5113765;27;20215;-76
2023/10/16 02:13:43;;;;;;;13.40;5.07;;;;;;;10.41;57.77;94947.38;5117867;27;20214;-75
2023/10/16 02:16:12;;;;;;;5.75;5.25;;;;;;;10.42;57.70;94941.13;5100877;27;20195;-76
2023/10/16 02:18:41;;;;;;;5.38;4.97;;;;;;;10.46;56.72;94955.63;5116695;27;20222;-76
2023/10/16 02:21:11;;;;;;;5.18;4.68;;;;;;;10.35;56.31;94965.41;5117934;27;20210;-76
2023/10/16 02:23:41;;;;;;;5.45;5.00;;;;;;;10.48;55.82;94958.94;5114298;27;20233;-76
2023/10/16 02:26:06;;;;;;;4.95;4.47;;;;;;;10.50;55.68;94960.41;5114041;27;20221;-77
2023/10/16 02:28:33;;;;;;;4.72;4.32;;;;;;;10.62;54.95;94961.00;5117873;27;20179;-77
2023/10/16 02:31:17;;;;;;;4.55;4.15;;;;;;;10.60;55.22;94960.34;5116120;27;20229;-76
2023/10/16 02:33:50;;;;;;;5.20;4.80;;;;;;;10.68;54.71;94970.91;5116294;27;20227;-76
2023/10/16 02:36:19;;;;;;;4.82;4.50;;;;;;;10.84;53.95;94962.31;5117099;27;20222;-75
2023/10/16 02:38:47;;;;;;;4.78;4.35;;;;;;;10.82;54.06;94970.38;5113276;28;20219;-75
2023/10/16 02:41:19;;;;;;;5.25;4.85;;;;;;;10.62;54.50;94976.78;5132227;27;20223;-76
2023/10/16 02:43:48;;;;;;;4.93;4.60;;;;;;;10.51;55.00;94980.50;5132345;27;20179;-75
2023/10/16 02:46:14;;;;;;;4.60;4.30;;;;;;;10.56;54.92;94987.94;5118278;27;20178;-75
2023/10/16 02:48:43;;;;;;;4.90;4.50;;;;;;;10.53;54.83;94983.78;5116487;27;20211;-76
2023/10/16 02:51:10;;;;;;;4.85;4.55;;;;;;;10.65;54.41;94981.75;5116026;27;20277;-76
2023/10/16 02:53:41;;;;;;;5.10;4.70;;;;;;;10.60;54.45;94991.88;5116134;27;20300;-76
2023/10/16 02:58:54;;;;;;;4.93;4.47;;;;;;;10.50;54.02;94991.97;5134074;27;20195;-75
2023/10/16 03:01:20;;;;;;;4.75;4.38;;;;;;;10.48;54.08;94995.75;5115580;27;20295;-75
2023/10/16 03:03:46;;;;;;;4.50;4.10;;;;;;;10.49;53.40;94990.31;5116207;27;20239;-75
2023/10/16 03:06:12;;;;;;;5.13;4.55;;;;;;;10.50;53.68;94999.03;5114522;27;20303;-75
2023/10/16 03:08:38;;;;;;;4.63;4.32;;;;;;;10.53;53.44;94994.31;5135136;27;20305;-76
2023/10/16 03:11:06;;;;;;;5.05;4.60;;;;;;;10.53;53.09;95003.97;5116355;27;20256;-75
2023/10/16 03:13:38;;;;;;;5.53;5.03;;;;;;;10.66;53.07;94990.44;5110053;27;20236;-75
2023/10/16 03:18:48;;;;;;;5.60;4.60;;;;;;;10.55;53.65;95013.38;5132083;27;20219;-76
2023/10/16 03:23:45;;;;;;;4.78;4.25;;;;;;;10.36;53.31;95029.31;5131651;27;20226;-76
2023/10/16 03:26:22;;;;;;;5.20;4.70;;;;;;;10.24;53.76;95025.22;5115893;27;20221;-76
2023/10/16 03:28:48;;;;;;;5.22;4.78;;;;;;;10.48;53.37;95032.56;5116955;27;20185;-75
2023/10/16 03:31:14;;;;;;;4.80;4.40;;;;;;;10.46;53.27;95043.22;5116587;27;20273;-76
2023/10/16 03:33:39;;;;;;;4.55;4.22;;;;;;;10.43;52.79;95059.28;5114699;27;20242;-75
2023/10/16 03:36:05;;;;;;;5.28;4.22;;;;;;;10.43;52.96;95035.63;5108402;27;20242;-77
2023/10/16 03:38:37;;;;;;;4.75;4.35;;;;;;;10.43;52.96;95035.63;5116107;27;20231;-75
2023/10/16 03:41:12;;;;;;;4.50;4.10;;;;;;;10.22;53.21;95042.94;5114051;27;20291;-75
2023/10/16 03:43:42;;;;;;;4.78;4.43;;;;;;;10.19;53.48;95038.00;5115963;27;20183;-75
2023/10/16 03:46:13;;;;;;;4.70;4.32;;;;;;;10.27;53.44;95043.31;5117557;27;20281;-73
2023/10/16 03:48:39;;;;;;;5.13;4.72;;;;;;;10.14;53.39;95025.28;5115775;27;20393;-73
2023/10/16 03:51:06;;;;;;;5.50;5.00;;;;;;;10.15;53.86;95040.88;5115983;27;20270;-71
2023/10/16 03:53:32;;;;;;;5.97;4.60;;;;;;;10.07;53.51;95053.94;5115489;27;20241;-72
2023/10/16 03:55:58;;;;;;;5.10;4.65;;;;;;;9.86;54.27;95046.34;5115179;27;20197;-70
2023/10/16 03:58:26;;;;;;;7.45;4.72;;;;;;;10.08;53.99;95052.16;5131202;27;20211;-71
2023/10/16 04:00:58;;;;;;;8.15;5.07;;;;;;;10.07;53.81;95053.13;5115051;27;20305;-69
2023/10/16 04:03:26;;;;;;;5.72;5.22;;;;;;;10.21;53.05;95063.16;5111865;27;20218;-71
2023/10/16 04:05:53;;;;;;;5.43;5.03;;;;;;;9.99;53.61;95064.34;5118350;27;20219;-72
2023/10/16 04:08:23;;;;;;;5.95;5.35;;;;;;;9.94;54.07;95053.47;5132481;27;20230;-73
2023/10/16 04:10:49;;;;;;;6.25;5.70;;;;;;;10.09;53.66;95062.50;5132937;27;20191;-72
2023/10/16 04:13:16;;;;;;;5.78;5.05;;;;;;;9.75;53.93;95070.16;5119606;27;20205;-71
2023/10/16 04:34:32;;;;;;;5.47;5.07;;;;;;;10.18;52.37;95120.41;5030875;28;20268;-72
2023/10/16 04:50:37;;;;;;;5.40;4.82;;;;;;;9.99;52.85;95131.84;5029921;28;20214;-71
2023/10/16 04:53:11;;;;;;;5.13;4.47;;;;;;;10.07;52.50;95140.63;5029231;28;20242;-71
2023/10/16 05:00:57;;;;;;;4.93;4.47;;;;;;;10.06;52.42;95149.50;5026922;28;20230;-72
2023/10/16 05:09:53;;;;;;;6.60;4.68;;;;;;;10.08;52.41;95196.66;5028235;28;20356;-73
2023/10/16 05:17:21;;;;;;;4.88;4.40;;;;;;;10.04;53.27;95187.41;5132234;27;20222;-72
2023/10/16 05:19:53;;;;;;;5.10;4.60;;;;;;;10.22;52.17;95179.59;5132536;27;20186;-72
2023/10/16 06:14:22;;;;;;;5.07;3.63;;;;;;;10.33;48.93;95295.91;5052483;28;20232;-74
2023/10/16 06:16:53;;;;;;;4.50;3.35;;;;;;;10.28;48.84;95294.69;5039109;28;20201;-72
2023/10/16 06:19:19;;;;;;;4.15;3.33;;;;;;;10.24;48.89;95295.91;5020505;28;20643;-75
2023/10/16 06:21:46;;;;;;;10.15;3.95;;;;;;;10.29;49.14;95317.34;5033328;28;20245;-73
2023/10/16 06:24:25;;;;;;;4.38;3.13;;;;;;;10.28;49.24;95315.69;5035750;28;20311;-72
2023/10/16 06:26:59;;;;;;;4.10;3.03;;;;;;;10.41;48.37;95310.13;5032841;28;20252;-67
2023/10/16 06:29:26;;;;;;;4.93;2.85;;;;;;;10.53;48.28;95315.06;5035727;28;20224;-72
2023/10/16 06:31:58;;;;;;;3.70;2.80;;;;;;;10.60;47.77;95313.50;5035035;28;20244;-71
2023/10/16 06:34:24;;;;;;;5.63;2.97;;;;;;;10.36;48.29;95313.19;5055420;27;20198;-69
2023/10/16 06:36:55;;;;;;;3.75;2.50;;;;;;;10.25;48.34;95311.53;5115247;27;20306;-68
2023/10/16 06:39:28;;;;;;;4.40;2.63;;;;;;;10.21;48.27;95309.31;5117009;27;20233;-67
2023/10/16 06:41:55;;;;;;;2.50;2.30;;;;;;;10.24;48.18;95303.81;5130201;27;20227;-68
2023/10/16 06:44:28;;;;;;;3.97;2.42;;;;;;;10.50;47.60;95315.34;5116409;27;20317;-73
2023/10/16 06:47:00;;;;;;;6.03;2.67;;;;;;;10.40;48.00;95319.81;5116580;27;20221;-76
2023/10/16 06:49:37;;;;;;;3.83;2.72;;;;;;;10.38;47.67;95311.25;5134262;27;20198;-73
2023/10/16 06:52:12;;;;;;;5.35;2.90;;;;;;;10.50;47.53;95302.19;5117679;27;20301;-77
2023/10/16 06:54:39;;;;;;;4.00;2.40;;;;;;;10.85;47.14;95319.06;5130878;27;20313;-78
2023/10/16 06:57:13;;;;;;;3.42;2.70;;;;;;;10.79;46.52;95335.44;5116961;27;20249;-77
2023/10/16 06:59:40;;;;;;;5.20;2.90;;;;;;;10.71;46.52;95328.28;5116085;27;20210;-76
2023/10/16 07:02:33;;;;;;;3.78;2.40;;;;;;;10.72;46.60;95342.25;5108751;27;20210;-77
2023/10/16 07:04:55;;;;;;;4.70;2.83;;;;;;;10.80;46.26;95331.84;5134553;27;20198;-78
2023/10/16 07:07:22;;;;;;;3.22;2.78;;;;;;;10.81;46.27;95336.97;5118171;27;20701;-79
2023/10/16 07:09:48;;;;;;;7.88;3.38;;;;;;;10.71;46.18;95335.34;5116307;27;20238;-76
2023/10/16 07:12:17;;;;;;;5.20;2.55;;;;;;;10.67;46.52;95336.63;5116046;27;20246;-69
2023/10/16 07:14:55;;;;;;;5.07;2.70;;;;;;;10.79;46.57;95330.19;5110807;27;20215;-79
2023/10/16 07:17:29;;;;;;;5.57;2.78;;;;;;;11.12;45.72;95328.78;5115508;27;20221;-79
2023/10/16 07:20:01;;;;;;;4.72;2.60;;;;;;;11.23;45.45;95323.31;5109306;27;20194;-72
2023/10/16 07:22:32;;;;;;;4.00;2.90;;;;;;;11.15;45.57;95325.84;5114902;27;20256;-71
2023/10/16 07:27:48;;;;;;;5.20;2.20;;;;;;;10.88;46.12;95339.84;5050923;28;20271;-73
2023/10/16 07:30:23;;;;;;;2.97;2.20;;;;;;;11.07;45.25;95330.22;5050267;28;20222;-68
2023/10/16 07:32:49;;;;;;;3.33;2.10;;;;;;;11.16;45.13;95329.31;5028941;28;20255;-66
2023/10/16 07:35:18;;;;;;;2.80;2.30;;;;;;;11.15;45.03;95325.03;5035234;28;20739;-72
2023/10/16 07:37:48;;;;;;;5.70;2.42;;;;;;;10.85;45.42;95331.41;5050292;28;20217;-72
2023/10/16 07:40:20;;;;;;;4.45;2.30;;;;;;;10.99;45.15;95355.44;5050387;28;20366;-71
2023/10/16 07:42:46;;;;;;;4.03;1.88;;;;;;;10.69;45.68;95334.66;5033831;28;20229;-75
2023/10/16 07:45:12;;;;;;;3.28;2.50;;;;;;;10.69;45.67;95337.28;5049972;28;20232;-75
2023/10/16 07:47:37;;;;;;;3.10;2.10;;;;;;;10.99;45.24;95320.41;5049636;28;20217;-70
2023/10/16 07:50:04;;;;;;;5.30;2.50;;;;;;;11.25;44.50;95331.03;5033732;28;20263;-72
2023/10/16 07:52:30;;;;;;;4.97;2.55;;;;;;;11.61;42.91;95326.66;5033947;28;20220;-73
2023/10/16 07:54:55;;;;;;;4.00;2.22;;;;;;;11.58;42.87;95326.13;5034588;28;20661;-72
2023/10/16 07:57:23;;;;;;;3.15;1.88;;;;;;;11.60;42.18;95321.50;5030833;28;20316;-73
2023/10/16 07:59:54;;;;;;;3.08;2.08;;;;;;;11.93;41.48;95319.22;5052228;28;20235;-74
2023/10/16 08:02:22;;;;;;;2.75;2.50;;;;;;;12.06;41.40;95319.66;5050658;28;20317;-73
2023/10/16 08:04:51;;;;;;;3.63;2.33;;;;;;;12.05;41.31;95312.69;5086294;27;20209;-76
2023/10/16 08:07:34;;;;;;;3.20;2.20;;;;;;;12.14;41.13;95302.06;5115122;27;20171;-79
2023/10/16 08:10:28;;;;;;;3.85;2.13;;;;;;;12.18;40.94;95305.22;5113322;27;20219;-78
2023/10/16 08:12:47;;;;;;;9.00;2.03;;;;;;;12.13;40.92;95304.84;5133343;27;20221;-76
2023/10/16 08:15:15;;;;;;;5.18;2.40;;;;;;;12.12;41.26;95314.56;5112160;27;20219;-76
2023/10/16 08:17:43;;;;;;;2.95;2.30;;;;;;;12.39;40.69;95311.97;5114832;27;20219;-76
2023/10/16 08:20:17;;;;;;;4.65;2.20;;;;;;;12.47;39.62;95309.38;5115685;27;20218;-78
2023/10/16 08:22:47;;;;;;;3.15;1.60;;;;;;;12.61;38.14;95310.59;5115099;27;20313;-71
2023/10/16 08:25:30;;;;;;;3.60;1.90;;;;;;;12.79;37.86;95322.72;5108514;27;20171;-71
2023/10/16 08:28:18;;;;;;;3.22;1.85;;;;;;;12.77;37.48;95308.03;5133461;27;20217;-73
2023/10/16 08:30:49;;;;;;;3.22;1.70;;;;;;;12.72;36.86;95315.59;5107309;27;20214;-73
2023/10/16 08:33:18;;;;;;;2.90;1.50;;;;;;;12.69;36.98;95319.38;5112936;27;20242;-73
2023/10/16 08:35:45;;;;;;;2.42;1.50;;;;;;;12.64;37.10;95324.28;5112659;28;20211;-73
2023/10/16 08:38:20;;;;;;;2.92;1.80;;;;;;;12.85;36.65;95325.72;5113774;27;20275;-73
2023/10/16 08:40:58;;;;;;;5.43;2.17;;;;;;;12.85;37.40;95323.91;5122291;27;20178;-78
2023/10/16 08:43:39;;;;;;;9.18;2.00;;;;;;;12.74;37.09;95325.00;5111838;28;20182;-79
2023/10/16 08:46:18;;;;;;;4.78;1.80;;;;;;;12.88;36.60;95314.84;5122344;27;20219;-75
2023/10/16 08:48:48;;;;;;;5.43;1.85;;;;;;;12.98;36.07;95320.81;5104042;28;20211;-74
2023/10/16 08:51:16;;;;;;;4.82;1.70;;;;;;;13.16;35.69;95308.34;5113402;27;20222;-71
2023/10/16 08:53:43;;;;;;;3.28;1.73;;;;;;;13.22;35.50;95320.91;5114487;27;20238;-68
2023/10/16 08:56:09;;;;;;;2.40;1.67;;;;;;;12.88;36.20;95314.84;5113874;28;20595;-68
2023/10/16 08:58:44;;;;;;;3.88;1.85;;;;;;;12.75;36.75;95316.13;5117383;27;20289;-69
2023/10/16 09:01:12;;;;;;;1.77;1.52;;;;;;;12.97;36.78;95324.47;5113332;28;20210;-71
2023/10/16 09:04:05;;;;;;;4.60;1.73;;;;;;;13.01;36.86;95321.31;5129233;28;20207;-71
2023/10/16 09:06:36;;;;;;;3.53;2.17;;;;;;;13.21;36.57;95329.81;5069517;28;20220;-72
2023/10/16 09:09:11;;;;;;;4.03;2.10;;;;;;;13.57;35.76;95319.03;5069195;28;20220;-74
2023/10/16 09:11:39;;;;;;;4.00;2.00;;;;;;;13.57;34.89;95321.69;5086503;28;20227;-74
2023/10/16 09:14:07;;;;;;;1.80;1.60;;;;;;;13.63;34.99;95328.97;5085980;28;20278;-76
2023/10/16 09:16:34;;;;;;;1.95;1.50;;;;;;;13.62;34.50;95327.31;5086030;28;20276;-75
2023/10/16 09:19:06;;;;;;;5.78;1.70;;;;;;;13.71;34.46;95311.47;5084322;28;20217;-76
2023/10/16 09:21:38;;;;;;;6.10;1.90;;;;;;;13.65;34.70;95318.22;5068463;28;20235;-74
2023/10/16 09:24:05;;;;;;;3.05;1.92;;;;;;;13.58;34.85;95314.56;5084616;28;20256;-73
2023/10/16 09:26:37;;;;;;;3.40;1.70;;;;;;;13.67;35.13;95313.59;5051997;28;20246;-73
2023/10/16 09:29:15;;;;;;;4.18;1.70;;;;;;;13.53;35.00;95304.50;5051892;28;20227;-74
2023/10/16 09:31:44;;;;;;;3.35;1.55;;;;;;;13.86;34.47;95304.53;5050319;28;20217;-73
2023/10/16 09:34:12;;;;;;;2.97;1.63;;;;;;;14.07;33.91;95312.78;5068028;28;20225;-75
2023/10/16 09:36:38;;;;;;;3.83;1.88;;;;;;;13.73;34.39;95310.31;5069127;28;20280;-73
2023/10/16 09:39:16;;;;;;;2.83;1.45;;;;;;;13.59;33.59;95310.97;5086302;28;20236;-75
2023/10/16 09:41:43;;;;;;;2.08;1.52;;;;;;;13.57;34.31;95303.19;5086226;28;20243;-74
2023/10/16 09:44:23;;;;;;;2.92;1.80;;;;;;;13.78;34.20;95289.50;5121873;28;20215;-75
2023/10/16 09:46:53;;;;;;;2.13;1.70;;;;;;;14.01;33.46;95305.53;5130124;28;20179;-73
2023/10/16 09:49:26;;;;;;;2.53;1.50;;;;;;;13.95;33.77;95303.53;5113929;28;20175;-75
2023/10/16 09:52:03;;;;;;;3.28;1.50;;;;;;;13.88;33.75;95287.53;5116807;28;20297;-74
2023/10/16 09:54:30;;;;;;;3.30;1.58;;;;;;;13.99;33.67;95286.34;5105396;27;20230;-74
2023/10/16 09:57:01;;;;;;;6.68;1.80;;;;;;;14.16;33.60;95278.41;5123859;27;20230;-75
2023/10/16 09:59:38;;;;;;;3.70;1.80;;;;;;;13.91;33.58;95291.66;5118259;27;20265;-75
2023/10/16 10:02:16;;;;;;;3.28;1.90;;;;;;;13.87;33.65;95272.66;5117871;27;20217;-74
2023/10/16 10:04:53;;;;;;;3.83;1.90;;;;;;;14.00;33.28;95279.25;5114673;27;20225;-76
2023/10/16 10:07:22;;;;;;;5.05;2.20;;;;;;;14.38;33.15;95285.66;5134469;27;20183;-74
2023/10/16 10:09:57;;;;;;;2.83;1.67;;;;;;;14.43;32.67;95278.03;5133675;27;20227;-74
2023/10/16 10:12:42;;;;;;;2.40;1.48;;;;;;;14.33;32.58;95280.06;5116530;27;20210;-74
2023/10/16 10:15:33;;;;;;;4.20;1.60;;;;;;;14.61;32.58;95267.25;5116775;27;20222;-74
2023/10/16 10:18:31;;;;;;;3.00;1.65;;;;;;;14.79;32.46;95280.28;5115303;27;20313;-68
2023/10/16 10:20:46;;;;;;;1.88;1.67;;;;;;;14.86;31.93;95259.22;5128451;27;20218;-68
2023/10/16 10:23:15;;;;;;;5.30;1.83;;;;;;;14.95;31.94;95271.44;5117825;27;20342;-70
2023/10/16 10:25:41;;;;;;;2.25;1.60;;;;;;;15.00;31.54;95259.34;5117606;27;20183;-73
2023/10/16 10:28:23;;;;;;;2.67;1.58;;;;;;;15.27;31.49;95248.44;5110301;27;20175;-74
2023/10/16 10:30:50;;;;;;;1.45;1.35;;;;;;;15.27;31.66;95256.38;5115374;27;20215;-71
2023/10/16 10:33:51;;;;;;;2.42;1.83;;;;;;;15.22;30.62;95247.13;5116396;27;20306;-69
2023/10/16 10:36:39;;;;;;;3.03;1.23;;;;;;;15.29;30.72;95235.81;5114291;27;20280;-71
2023/10/16 10:42:03;;;;;;;3.42;1.63;;;;;;;15.34;30.19;95241.41;5135119;27;20312;-71
2023/10/16 10:44:44;;;;;;;2.47;1.55;;;;;;;15.22;30.55;95233.88;5113311;27;20210;-78
2023/10/16 10:47:31;;;;;;;2.90;1.60;;;;;;;15.34;30.16;95226.38;5116431;27;20298;-79
2023/10/16 10:49:59;;;;;;;2.55;1.30;;;;;;;15.39;30.06;95224.00;5117254;27;20292;-81
2023/10/16 10:52:26;;;;;;;1.67;1.42;;;;;;;15.28;30.30;95227.06;5136233;27;20191;-77
2023/10/16 10:54:59;;;;;;;1.25;1.15;;;;;;;15.27;30.37;95220.13;5115224;27;20207;-75
2023/10/16 10:57:26;;;;;;;1.70;1.35;;;;;;;15.57;29.79;95215.75;5133020;27;20227;-73
2023/10/16 10:59:56;;;;;;;2.20;1.30;;;;;;;15.83;29.54;95218.06;5116968;27;20222;-74
2023/10/16 11:02:48;;;;;;;1.70;1.27;;;;;;;15.90;29.23;95217.34;5133279;27;20290;-72
2023/10/16 11:05:22;;;;;;;2.38;1.70;;;;;;;15.91;29.35;95214.53;5119366;27;20319;-73
2023/10/16 11:10:33;;;;;;;2.72;1.70;;;;;;;15.76;29.04;95209.16;5133386;27;20204;-73
2023/10/16 11:13:05;;;;;;;2.03;1.60;;;;;;;15.81;28.90;95211.28;5135354;27;20226;-76
2023/10/16 11:15:30;;;;;;;4.35;2.33;;;;;;;15.91;28.50;95211.06;5133702;27;20287;-71
2023/10/16 11:18:05;;;;;;;1.85;1.30;;;;;;;16.10;27.63;95219.31;5112201;27;20223;-72
2023/10/16 11:20:32;;;;;;;2.38;1.27;;;;;;;16.20;27.37;95212.91;5111905;27;20214;-72
2023/10/16 11:22:58;;;;;;;1.98;1.45;;;;;;;16.19;27.68;95213.91;5112967;27;20272;-72
2023/10/16 11:25:31;;;;;;;2.03;1.42;;;;;;;16.13;28.00;95202.19;5129069;27;20262;-72
2023/10/16 11:27:57;;;;;;;1.45;1.33;;;;;;;16.11;28.42;95204.22;5115958;27;20218;-73
2023/10/16 11:30:26;;;;;;;3.22;1.48;;;;;;;16.25;27.74;95181.34;5113906;27;20410;-72
2023/10/16 11:32:54;;;;;;;2.05;1.30;;;;;;;16.28;27.97;95205.69;5130569;27;20211;-73
2023/10/16 11:35:20;;;;;;;3.60;1.60;;;;;;;16.31;27.83;95196.56;5115992;27;20207;-75
2023/10/16 11:37:50;;;;;;;3.03;1.50;;;;;;;16.57;27.59;95200.56;5116139;27;20191;-75
2023/10/16 11:40:19;;;;;;;5.00;1.70;;;;;;;16.88;27.02;95190.56;5116977;27;20175;-73
2023/10/16 11:42:48;;;;;;;1.98;1.63;;;;;;;17.07;26.79;95189.16;5111992;27;20217;-70
2023/10/16 11:45:20;;;;;;;2.33;1.40;;;;;;;16.90;27.42;95198.38;5116133;27;20222;-76
2023/10/16 11:50:41;;;;;;;3.95;1.40;;;;;;;16.56;27.52;95204.22;5090878;28;20212;-70
2023/10/16 11:53:07;;;;;;;2.05;1.65;;;;;;;16.54;27.71;95199.09;5090434;28;20216;-70
2023/10/16 11:55:39;;;;;;;3.45;1.50;;;;;;;16.56;27.78;95193.63;5082094;28;20302;-73
2023/10/16 11:58:08;;;;;;;4.75;1.65;;;;;;;16.76;27.62;95195.50;5074552;28;20277;-71
2023/10/16 12:00:35;;;;;;;3.85;1.17;;;;;;;16.65;27.93;95192.50;5091244;28;20227;-76
2023/10/16 12:03:07;;;;;;;2.40;1.77;;;;;;;16.83;26.87;95184.16;5074434;28;20239;-71
2023/10/16 12:05:36;;;;;;;4.45;1.70;;;;;;;16.87;27.47;95188.13;5088827;28;20614;-72
2023/10/16 12:08:02;;;;;;;4.35;1.50;;;;;;;16.99;27.51;95183.94;5072860;28;20277;-72
2023/10/16 12:10:29;;;;;;;5.28;2.10;;;;;;;17.41;27.06;95175.19;5076106;28;20188;-73
2023/10/16 12:12:55;;;;;;;3.05;1.35;;;;;;;17.88;25.76;95178.28;5073156;28;20255;-70
2023/10/16 12:15:24;;;;;;;1.45;1.30;;;;;;;18.14;24.57;95184.81;5076937;28;20219;-70
2023/10/16 12:17:49;;;;;;;2.50;1.30;;;;;;;18.14;24.82;95167.00;5074806;28;20243;-71
2023/10/16 12:20:16;;;;;;;2.33;1.55;;;;;;;18.58;24.90;95170.31;5074775;28;20250;-72
2023/10/16 12:22:44;;;;;;;1.48;1.30;;;;;;;18.93;23.75;95169.28;5090334;28;20239;-72
2023/10/16 12:25:09;;;;;;;2.72;1.27;;;;;;;19.50;23.31;95174.34;5071749;28;20180;-72
2023/10/16 12:27:38;;;;;;;2.10;1.73;;;;;;;19.90;22.55;95159.19;5092867;27;20218;-70
2023/10/16 12:30:05;;;;;;;3.20;2.88;;;;;;;21.36;20.71;95155.25;5112132;27;20241;-71
2023/10/16 12:32:30;;;;;;;3.22;1.73;;;;;;;23.08;18.62;95152.06;5129966;27;20218;-67
2023/10/16 12:34:57;;;;;;;1.60;1.50;;;;;;;24.74;17.54;95157.47;5115381;27;20187;-71
2023/10/16 12:37:24;;;;;;;3.00;2.22;;;;;;;26.09;15.17;95157.03;5114971;27;20183;-68
2023/10/16 12:39:52;;;;;;;1.90;1.80;;;;;;;26.79;14.25;95152.97;5115364;27;20226;-69
2023/10/16 12:42:18;;;;;;;2.40;2.20;;;;;;;27.74;14.03;95149.97;5114166;27;20206;-70
2023/10/16 12:44:44;;;;;;;2.53;1.80;;;;;;;28.77;12.81;95152.41;5112325;27;20221;-70
2023/10/16 12:47:12;;;;;;;4.53;2.10;;;;;;;29.33;12.48;95152.66;5107092;27;20225;-70
2023/10/16 12:49:37;;;;;;;4.05;2.10;;;;;;;29.21;12.36;95143.94;5133648;27;20183;-71
2023/10/16 12:52:03;;;;;;;3.55;1.60;;;;;;;29.76;11.96;95147.09;5133029;27;20221;-71
2023/10/16 12:54:28;;;;;;;2.92;1.70;;;;;;;30.30;11.78;95150.09;5131643;27;20219;-69
2023/10/16 12:56:54;;;;;;;3.15;2.15;;;;;;;30.42;11.69;95152.53;5113887;28;20226;-71
2023/10/16 12:59:20;;;;;;;4.32;2.20;;;;;;;30.92;11.17;95145.38;5114916;27;20314;-72
2023/10/16 13:01:49;;;;;;;2.50;1.80;;;;;;;30.59;11.55;95143.28;5115769;28;20178;-75
2023/10/16 13:04:16;;;;;;;2.35;2.20;;;;;;;30.41;11.79;95150.09;5127750;27;20191;-68
2023/10/16 13:06:43;;;;;;;1.98;1.88;;;;;;;30.32;11.35;95147.94;5112770;28;20225;-73
2023/10/16 13:09:16;;;;;;;2.55;2.10;;;;;;;29.91;11.13;95136.25;5132320;28;20267;-73
2023/10/16 13:11:43;;;;;;;2.53;2.10;;;;;;;30.86;10.61;95135.63;5107843;28;20222;-71
2023/10/16 13:14:09;;;;;;;2.60;2.40;;;;;;;30.30;10.52;95141.97;5104084;28;20225;-72
2023/10/16 13:16:34;;;;;;;2.13;2.03;;;;;;;30.32;11.10;95147.13;5115605;28;20187;-73
2023/10/16 13:19:00;;;;;;;2.47;2.28;;;;;;;31.95;10.55;95132.09;5112155;27;20223;-75
2023/10/16 13:21:38;;;;;;;3.95;3.00;;;;;;;31.46;10.66;95141.09;5114154;28;20295;-70
2023/10/16 13:24:16;;;;;;;3.33;2.63;;;;;;;31.23;10.11;95149.88;5111626;28;20226;-75
2023/10/16 13:26:42;;;;;;;2.47;2.28;;;;;;;31.42;10.12;95149.00;5128600;28;20217;-72
2023/10/16 13:29:13;;;;;;;3.58;2.53;;;;;;;32.07;8.77;95148.03;5119179;27;20211;-72
2023/10/16 13:31:40;;;;;;;3.38;2.55;;;;;;;32.68;8.03;95146.72;5133013;27;20187;-76
2023/10/16 13:34:13;;;;;;;4.07;3.47;;;;;;;33.27;7.25;95142.78;5119831;27;20243;-76
2023/10/16 13:36:56;;;;;;;4.43;2.90;;;;;;;32.67;7.65;95150.53;5132429;27;20275;-75
2023/10/16 13:39:25;;;;;;;6.38;5.78;;;;;;;33.30;7.48;95146.81;5114752;27;20227;-72
2023/10/16 13:41:51;;;;;;;3.20;2.90;;;;;;;33.59;6.96;95138.56;5114252;27;20215;-72
2023/10/16 13:44:22;;;;;;;3.78;3.50;;;;;;;33.73;6.40;95133.19;5114040;27;20215;-71
2023/10/16 13:46:51;;;;;;;3.25;2.95;;;;;;;33.69;6.26;95132.16;5107276;27;20182;-71
2023/10/16 13:49:18;;;;;;;5.13;4.63;;;;;;;32.56;6.93;95135.38;5118578;27;20163;-75
2023/10/16 13:51:44;;;;;;;5.80;5.53;;;;;;;32.90;6.63;95140.75;5117863;27;20215;-69